sensor_id;sensor_type;location;lat;lon;timestamp;temperature;humidity
75126;DHT22;63699;45.442;11.510;2022-12-18T00:03:54;19.30;68.50
75126;DHT22;63699;45.442;11.510;2022-12-18T00:06:20;19.30;68.50
75126;DHT22;63699;45.442;11.510;2022-12-18T00:08:47;19.30;68.50
75126;DHT22;63699;45.442;11.510;2022-12-18T00:11:18;19.30;68.50
75126;DHT22;63699;45.442;11.510;2022-12-18T00:13:46;19.20;68.50
75126;DHT22;63699;45.442;11.510;2022-12-18T00:16:16;19.20;68.50
75126;DHT22;63699;45.442;11.510;2022-12-18T00:18:43;19.20;68.60
75126;DHT22;63699;45.442;11.510;2022-12-18T00:21:11;19.20;68.60
75126;DHT22;63699;45.442;11.510;2022-12-18T00:23:39;19.20;68.60
75126;DHT22;63699;45.442;11.510;2022-12-18T00:26:11;19.10;68.60
75126;DHT22;63699;45.442;11.510;2022-12-18T00:28:36;19.20;68.70
75126;DHT22;63699;45.442;11.510;2022-12-18T00:31:04;19.20;68.60
75126;DHT22;63699;45.442;11.510;2022-12-18T00:33:30;19.20;68.60
75126;DHT22;63699;45.442;11.510;2022-12-18T00:36:21;19.20;68.50
75126;DHT22;63699;45.442;11.510;2022-12-18T00:38:47;19.20;68.50
75126;DHT22;63699;45.442;11.510;2022-12-18T00:41:14;19.20;68.40
75126;DHT22;63699;45.442;11.510;2022-12-18T00:44:00;19.30;68.30
75126;DHT22;63699;45.442;11.510;2022-12-18T00:46:26;19.30;68.10
75126;DHT22;63699;45.442;11.510;2022-12-18T00:48:51;19.30;68.10
75126;DHT22;63699;45.442;11.510;2022-12-18T00:51:17;19.40;68.00
75126;DHT22;63699;45.442;11.510;2022-12-18T00:53:42;19.40;68.00
75126;DHT22;63699;45.442;11.510;2022-12-18T00:56:08;19.40;67.90
75126;DHT22;63699;45.442;11.510;2022-12-18T00:58:33;19.50;67.90
75126;DHT22;63699;45.442;11.510;2022-12-18T01:01:00;19.50;67.90
75126;DHT22;63699;45.442;11.510;2022-12-18T01:03:26;19.50;67.70
75126;DHT22;63699;45.442;11.510;2022-12-18T01:05:51;19.50;67.70
75126;DHT22;63699;45.442;11.510;2022-12-18T01:08:17;19.50;67.80
75126;DHT22;63699;45.442;11.510;2022-12-18T01:10:43;19.50;67.80
75126;DHT22;63699;45.442;11.510;2022-12-18T01:13:08;19.50;68.40
75126;DHT22;63699;45.442;11.510;2022-12-18T01:15:34;19.50;67.80
75126;DHT22;63699;45.442;11.510;2022-12-18T01:17:59;19.50;67.80
75126;DHT22;63699;45.442;11.510;2022-12-18T01:20:25;19.40;67.80
75126;DHT22;63699;45.442;11.510;2022-12-18T01:22:50;19.40;67.80
75126;DHT22;63699;45.442;11.510;2022-12-18T01:25:16;19.40;67.90
75126;DHT22;63699;45.442;11.510;2022-12-18T01:27:42;19.40;67.90
75126;DHT22;63699;45.442;11.510;2022-12-18T01:30:08;19.40;68.00
75126;DHT22;63699;45.442;11.510;2022-12-18T01:32:33;19.40;68.00
75126;DHT22;63699;45.442;11.510;2022-12-18T01:34:59;19.40;68.00
75126;DHT22;63699;45.442;11.510;2022-12-18T01:37:24;19.30;68.00
75126;DHT22;63699;45.442;11.510;2022-12-18T01:39:50;19.30;68.00
75126;DHT22;63699;45.442;11.510;2022-12-18T01:42:19;19.30;68.10
75126;DHT22;63699;45.442;11.510;2022-12-18T01:47:42;19.30;68.10
75126;DHT22;63699;45.442;11.510;2022-12-18T01:53:15;19.30;68.20
75126;DHT22;63699;45.442;11.510;2022-12-18T01:55:48;19.30;68.20
75126;DHT22;63699;45.442;11.510;2022-12-18T01:58:15;19.30;68.20
75126;DHT22;63699;45.442;11.510;2022-12-18T02:00:41;19.30;68.90
75126;DHT22;63699;45.442;11.510;2022-12-18T02:03:07;19.20;68.30
75126;DHT22;63699;45.442;11.510;2022-12-18T02:05:44;19.30;68.40
75126;DHT22;63699;45.442;11.510;2022-12-18T02:09:01;19.20;68.30
75126;DHT22;63699;45.442;11.510;2022-12-18T02:16:30;19.20;68.40
75126;DHT22;63699;45.442;11.510;2022-12-18T02:19:01;19.20;68.50
75126;DHT22;63699;45.442;11.510;2022-12-18T02:21:45;19.20;68.50
75126;DHT22;63699;45.442;11.510;2022-12-18T02:24:35;19.20;68.50
75126;DHT22;63699;45.442;11.510;2022-12-18T02:27:05;19.20;68.50
75126;DHT22;63699;45.442;11.510;2022-12-18T02:32:06;19.20;68.60
75126;DHT22;63699;45.442;11.510;2022-12-18T02:34:37;19.10;68.60
75126;DHT22;63699;45.442;11.510;2022-12-18T02:37:05;19.10;68.60
75126;DHT22;63699;45.442;11.510;2022-12-18T02:39:36;19.10;68.60
75126;DHT22;63699;45.442;11.510;2022-12-18T02:42:02;19.10;68.70
75126;DHT22;63699;45.442;11.510;2022-12-18T02:44:43;19.10;68.70
75126;DHT22;63699;45.442;11.510;2022-12-18T02:47:11;19.10;68.70
75126;DHT22;63699;45.442;11.510;2022-12-18T02:49:44;19.10;68.70
75126;DHT22;63699;45.442;11.510;2022-12-18T02:57:43;19.00;68.60
75126;DHT22;63699;45.442;11.510;2022-12-18T03:00:16;19.00;68.60
75126;DHT22;63699;45.442;11.510;2022-12-18T03:03:03;19.00;68.70
75126;DHT22;63699;45.442;11.510;2022-12-18T03:05:33;19.00;68.70
75126;DHT22;63699;45.442;11.510;2022-12-18T03:08:07;19.00;68.70
75126;DHT22;63699;45.442;11.510;2022-12-18T03:10:37;19.00;68.70
75126;DHT22;63699;45.442;11.510;2022-12-18T03:13:18;19.10;68.80
75126;DHT22;63699;45.442;11.510;2022-12-18T03:15:48;19.00;68.80
75126;DHT22;63699;45.442;11.510;2022-12-18T03:18:21;19.00;68.70
75126;DHT22;63699;45.442;11.510;2022-12-18T03:20:48;19.00;68.70
75126;DHT22;63699;45.442;11.510;2022-12-18T03:23:21;19.00;68.70
75126;DHT22;63699;45.442;11.510;2022-12-18T03:25:52;19.00;68.70
75126;DHT22;63699;45.442;11.510;2022-12-18T03:28:21;19.10;68.80
75126;DHT22;63699;45.442;11.510;2022-12-18T03:30:49;19.00;68.70
75126;DHT22;63699;45.442;11.510;2022-12-18T03:33:22;19.10;68.80
75126;DHT22;63699;45.442;11.510;2022-12-18T03:35:49;19.10;68.80
75126;DHT22;63699;45.442;11.510;2022-12-18T03:38:15;19.00;68.70
75126;DHT22;63699;45.442;11.510;2022-12-18T03:40:56;19.00;68.70
75126;DHT22;63699;45.442;11.510;2022-12-18T03:43:29;19.00;68.80
75126;DHT22;63699;45.442;11.510;2022-12-18T03:46:04;19.10;68.80
75126;DHT22;63699;45.442;11.510;2022-12-18T03:48:44;19.10;68.80
75126;DHT22;63699;45.442;11.510;2022-12-18T03:51:23;19.00;68.70
75126;DHT22;63699;45.442;11.510;2022-12-18T03:53:57;19.00;68.70
75126;DHT22;63699;45.442;11.510;2022-12-18T03:56:26;19.00;68.70
75126;DHT22;63699;45.442;11.510;2022-12-18T03:58:55;19.00;68.70
75126;DHT22;63699;45.442;11.510;2022-12-18T04:01:27;19.10;68.80
75126;DHT22;63699;45.442;11.510;2022-12-18T04:03:54;19.00;68.70
75126;DHT22;63699;45.442;11.510;2022-12-18T04:06:22;19.00;68.80
75126;DHT22;63699;45.442;11.510;2022-12-18T04:08:48;19.00;68.80
75126;DHT22;63699;45.442;11.510;2022-12-18T04:11:15;19.00;68.80
75126;DHT22;63699;45.442;11.510;2022-12-18T04:13:42;19.00;68.80
75126;DHT22;63699;45.442;11.510;2022-12-18T04:16:08;19.00;68.80
75126;DHT22;63699;45.442;11.510;2022-12-18T04:18:35;19.00;68.80
75126;DHT22;63699;45.442;11.510;2022-12-18T04:21:02;19.00;68.90
75126;DHT22;63699;45.442;11.510;2022-12-18T04:23:27;19.00;68.80
75126;DHT22;63699;45.442;11.510;2022-12-18T04:25:53;19.00;68.80
75126;DHT22;63699;45.442;11.510;2022-12-18T04:28:19;19.00;68.80
75126;DHT22;63699;45.442;11.510;2022-12-18T04:30:45;19.00;68.80
75126;DHT22;63699;45.442;11.510;2022-12-18T04:33:12;19.10;68.90
75126;DHT22;63699;45.442;11.510;2022-12-18T04:35:39;19.10;68.90
75126;DHT22;63699;45.442;11.510;2022-12-18T04:38:06;19.10;68.90
75126;DHT22;63699;45.442;11.510;2022-12-18T04:40:33;19.00;68.90
75126;DHT22;63699;45.442;11.510;2022-12-18T04:42:59;19.00;68.90
75126;DHT22;63699;45.442;11.510;2022-12-18T04:45:25;19.00;68.90
75126;DHT22;63699;45.442;11.510;2022-12-18T04:47:50;19.00;68.90
75126;DHT22;63699;45.442;11.510;2022-12-18T04:50:16;19.00;68.90
75126;DHT22;63699;45.442;11.510;2022-12-18T04:52:41;19.00;68.90
75126;DHT22;63699;45.442;11.510;2022-12-18T04:55:07;19.00;68.90
75126;DHT22;63699;45.442;11.510;2022-12-18T04:57:33;19.00;68.90
75126;DHT22;63699;45.442;11.510;2022-12-18T04:59:58;19.00;68.90
75126;DHT22;63699;45.442;11.510;2022-12-18T05:02:24;19.00;68.90
75126;DHT22;63699;45.442;11.510;2022-12-18T05:04:49;19.00;69.00
75126;DHT22;63699;45.442;11.510;2022-12-18T05:07:15;19.00;69.10
75126;DHT22;63699;45.442;11.510;2022-12-18T05:09:41;19.00;69.00
75126;DHT22;63699;45.442;11.510;2022-12-18T05:12:06;19.00;69.00
75126;DHT22;63699;45.442;11.510;2022-12-18T05:14:32;19.00;69.00
75126;DHT22;63699;45.442;11.510;2022-12-18T05:16:57;19.00;69.00
75126;DHT22;63699;45.442;11.510;2022-12-18T05:19:23;19.00;69.00
75126;DHT22;63699;45.442;11.510;2022-12-18T05:21:48;19.00;69.00
75126;DHT22;63699;45.442;11.510;2022-12-18T05:24:14;19.00;68.90
75126;DHT22;63699;45.442;11.510;2022-12-18T05:26:40;19.00;69.00
75126;DHT22;63699;45.442;11.510;2022-12-18T05:29:05;19.00;69.00
75126;DHT22;63699;45.442;11.510;2022-12-18T05:31:31;19.00;69.00
75126;DHT22;63699;45.442;11.510;2022-12-18T05:33:57;19.00;69.00
75126;DHT22;63699;45.442;11.510;2022-12-18T05:36:23;19.00;69.00
75126;DHT22;63699;45.442;11.510;2022-12-18T05:38:48;19.00;68.90
75126;DHT22;63699;45.442;11.510;2022-12-18T05:41:14;19.00;68.90
75126;DHT22;63699;45.442;11.510;2022-12-18T05:43:40;19.00;68.90
75126;DHT22;63699;45.442;11.510;2022-12-18T05:46:08;19.00;68.90
75126;DHT22;63699;45.442;11.510;2022-12-18T05:48:34;19.00;68.90
75126;DHT22;63699;45.442;11.510;2022-12-18T05:51:08;19.00;68.90
75126;DHT22;63699;45.442;11.510;2022-12-18T05:53:35;19.10;69.00
75126;DHT22;63699;45.442;11.510;2022-12-18T05:56:03;19.10;69.00
75126;DHT22;63699;45.442;11.510;2022-12-18T05:58:29;19.00;68.90
75126;DHT22;63699;45.442;11.510;2022-12-18T06:00:55;19.10;68.90
75126;DHT22;63699;45.442;11.510;2022-12-18T06:03:21;19.10;68.90
75126;DHT22;63699;45.442;11.510;2022-12-18T06:05:46;19.10;68.90
75126;DHT22;63699;45.442;11.510;2022-12-18T06:08:12;19.10;68.90
75126;DHT22;63699;45.442;11.510;2022-12-18T06:10:39;19.10;68.80
75126;DHT22;63699;45.442;11.510;2022-12-18T06:13:05;19.10;68.80
75126;DHT22;63699;45.442;11.510;2022-12-18T06:15:31;19.10;68.80
75126;DHT22;63699;45.442;11.510;2022-12-18T06:17:57;19.10;68.80
75126;DHT22;63699;45.442;11.510;2022-12-18T06:20:23;19.10;68.80
75126;DHT22;63699;45.442;11.510;2022-12-18T06:22:49;19.20;68.80
75126;DHT22;63699;45.442;11.510;2022-12-18T06:25:14;19.10;68.80
75126;DHT22;63699;45.442;11.510;2022-12-18T06:27:40;19.10;68.80
75126;DHT22;63699;45.442;11.510;2022-12-18T06:30:06;19.10;68.80
75126;DHT22;63699;45.442;11.510;2022-12-18T06:32:32;19.10;68.80
75126;DHT22;63699;45.442;11.510;2022-12-18T06:34:58;19.20;68.80
75126;DHT22;63699;45.442;11.510;2022-12-18T06:37:23;19.20;68.80
75126;DHT22;63699;45.442;11.510;2022-12-18T06:39:53;19.20;68.80
75126;DHT22;63699;45.442;11.510;2022-12-18T06:42:18;19.20;68.80
75126;DHT22;63699;45.442;11.510;2022-12-18T06:44:44;19.20;68.80
75126;DHT22;63699;45.442;11.510;2022-12-18T06:47:10;19.20;68.80
75126;DHT22;63699;45.442;11.510;2022-12-18T06:49:36;19.20;68.80
75126;DHT22;63699;45.442;11.510;2022-12-18T06:52:01;19.20;68.80
75126;DHT22;63699;45.442;11.510;2022-12-18T06:54:27;19.20;68.70
75126;DHT22;63699;45.442;11.510;2022-12-18T06:56:52;19.20;68.70
75126;DHT22;63699;45.442;11.510;2022-12-18T06:59:18;19.20;68.70
75126;DHT22;63699;45.442;11.510;2022-12-18T07:01:44;19.20;68.70
75126;DHT22;63699;45.442;11.510;2022-12-18T07:04:09;19.20;68.70
75126;DHT22;63699;45.442;11.510;2022-12-18T07:06:35;19.20;68.70
75126;DHT22;63699;45.442;11.510;2022-12-18T07:09:00;19.20;68.70
75126;DHT22;63699;45.442;11.510;2022-12-18T07:11:26;19.20;68.70
75126;DHT22;63699;45.442;11.510;2022-12-18T07:13:52;19.20;68.70
75126;DHT22;63699;45.442;11.510;2022-12-18T07:16:20;19.20;68.70
75126;DHT22;63699;45.442;11.510;2022-12-18T07:18:46;19.20;68.70
75126;DHT22;63699;45.442;11.510;2022-12-18T07:21:14;19.20;68.70
75126;DHT22;63699;45.442;11.510;2022-12-18T07:23:40;19.20;68.80
75126;DHT22;63699;45.442;11.510;2022-12-18T07:26:11;19.20;68.80
75126;DHT22;63699;45.442;11.510;2022-12-18T07:28:38;19.20;68.80
75126;DHT22;63699;45.442;11.510;2022-12-18T07:31:15;19.20;68.80
75126;DHT22;63699;45.442;11.510;2022-12-18T07:33:41;19.20;68.80
75126;DHT22;63699;45.442;11.510;2022-12-18T07:36:08;19.20;68.80
75126;DHT22;63699;45.442;11.510;2022-12-18T07:38:35;19.10;68.80
75126;DHT22;63699;45.442;11.510;2022-12-18T07:41:05;19.10;68.80
75126;DHT22;63699;45.442;11.510;2022-12-18T07:43:31;19.10;68.80
75126;DHT22;63699;45.442;11.510;2022-12-18T07:45:57;19.10;68.70
75126;DHT22;63699;45.442;11.510;2022-12-18T07:48:22;19.10;68.70
75126;DHT22;63699;45.442;11.510;2022-12-18T07:50:48;19.20;68.80
75126;DHT22;63699;45.442;11.510;2022-12-18T07:53:14;19.10;68.70
75126;DHT22;63699;45.442;11.510;2022-12-18T07:55:40;19.10;68.70
75126;DHT22;63699;45.442;11.510;2022-12-18T07:58:06;19.10;68.80
75126;DHT22;63699;45.442;11.510;2022-12-18T08:00:32;19.10;68.70
75126;DHT22;63699;45.442;11.510;2022-12-18T08:02:58;19.20;68.80
75126;DHT22;63699;45.442;11.510;2022-12-18T08:05:24;19.10;68.80
75126;DHT22;63699;45.442;11.510;2022-12-18T08:07:49;19.10;68.70
75126;DHT22;63699;45.442;11.510;2022-12-18T08:10:15;19.10;68.70
75126;DHT22;63699;45.442;11.510;2022-12-18T08:12:41;19.20;68.70
75126;DHT22;63699;45.442;11.510;2022-12-18T08:15:08;19.20;68.70
75126;DHT22;63699;45.442;11.510;2022-12-18T08:17:34;19.10;68.70
75126;DHT22;63699;45.442;11.510;2022-12-18T08:19:59;19.20;68.70
75126;DHT22;63699;45.442;11.510;2022-12-18T08:22:25;19.20;68.70
75126;DHT22;63699;45.442;11.510;2022-12-18T08:24:50;19.20;68.70
75126;DHT22;63699;45.442;11.510;2022-12-18T08:27:16;19.20;68.70
75126;DHT22;63699;45.442;11.510;2022-12-18T08:29:41;19.20;68.70
75126;DHT22;63699;45.442;11.510;2022-12-18T08:32:07;19.20;68.60
75126;DHT22;63699;45.442;11.510;2022-12-18T08:34:33;19.20;68.60
75126;DHT22;63699;45.442;11.510;2022-12-18T08:36:58;19.20;68.70
75126;DHT22;63699;45.442;11.510;2022-12-18T08:39:24;19.20;68.70
75126;DHT22;63699;45.442;11.510;2022-12-18T08:41:49;19.20;68.60
75126;DHT22;63699;45.442;11.510;2022-12-18T08:44:33;19.20;68.60
75126;DHT22;63699;45.442;11.510;2022-12-18T08:47:05;19.30;68.70
75126;DHT22;63699;45.442;11.510;2022-12-18T08:49:32;19.30;68.60
75126;DHT22;63699;45.442;11.510;2022-12-18T08:51:57;19.30;68.50
75126;DHT22;63699;45.442;11.510;2022-12-18T08:54:24;19.40;68.40
75126;DHT22;63699;45.442;11.510;2022-12-18T08:56:49;19.50;68.30
75126;DHT22;63699;45.442;11.510;2022-12-18T08:59:16;19.50;68.10
75126;DHT22;63699;45.442;11.510;2022-12-18T09:01:42;19.60;68.10
75126;DHT22;63699;45.442;11.510;2022-12-18T09:04:09;19.60;67.90
75126;DHT22;63699;45.442;11.510;2022-12-18T09:06:35;19.60;67.80
75126;DHT22;63699;45.442;11.510;2022-12-18T09:09:00;19.70;67.70
75126;DHT22;63699;45.442;11.510;2022-12-18T09:11:27;19.70;67.50
75126;DHT22;63699;45.442;11.510;2022-12-18T09:13:54;19.70;67.50
75126;DHT22;63699;45.442;11.510;2022-12-18T09:16:21;19.80;67.40
75126;DHT22;63699;45.442;11.510;2022-12-18T09:18:47;19.80;67.20
75126;DHT22;63699;45.442;11.510;2022-12-18T09:21:15;19.80;67.20
75126;DHT22;63699;45.442;11.510;2022-12-18T09:23:41;19.90;67.30
75126;DHT22;63699;45.442;11.510;2022-12-18T09:26:07;19.90;67.10
75126;DHT22;63699;45.442;11.510;2022-12-18T09:28:33;19.90;67.10
75126;DHT22;63699;45.442;11.510;2022-12-18T09:31:03;19.90;66.90
75126;DHT22;63699;45.442;11.510;2022-12-18T09:33:29;19.90;66.90
75126;DHT22;63699;45.442;11.510;2022-12-18T09:35:54;19.90;66.90
75126;DHT22;63699;45.442;11.510;2022-12-18T09:38:20;19.90;66.80
75126;DHT22;63699;45.442;11.510;2022-12-18T09:40:51;19.90;66.80
75126;DHT22;63699;45.442;11.510;2022-12-18T09:43:27;19.90;66.90
75126;DHT22;63699;45.442;11.510;2022-12-18T09:46:00;19.90;66.90
75126;DHT22;63699;45.442;11.510;2022-12-18T09:48:39;19.90;66.90
75126;DHT22;63699;45.442;11.510;2022-12-18T09:51:18;19.90;67.10
75126;DHT22;63699;45.442;11.510;2022-12-18T09:53:49;19.90;67.10
75126;DHT22;63699;45.442;11.510;2022-12-18T09:56:20;19.90;66.90
75126;DHT22;63699;45.442;11.510;2022-12-18T09:58:57;19.90;66.90
75126;DHT22;63699;45.442;11.510;2022-12-18T10:01:25;19.90;66.80
75126;DHT22;63699;45.442;11.510;2022-12-18T10:03:52;19.90;66.70
75126;DHT22;63699;45.442;11.510;2022-12-18T10:09:24;19.80;66.30
75126;DHT22;63699;45.442;11.510;2022-12-18T10:12:04;19.80;66.30
75126;DHT22;63699;45.442;11.510;2022-12-18T10:14:47;19.80;66.40
75126;DHT22;63699;45.442;11.510;2022-12-18T10:20:10;19.70;66.60
75126;DHT22;63699;45.442;11.510;2022-12-18T10:22:57;19.70;66.60
75126;DHT22;63699;45.442;11.510;2022-12-18T10:28:10;19.70;66.80
75126;DHT22;63699;45.442;11.510;2022-12-18T10:30:39;19.60;66.90
75126;DHT22;63699;45.442;11.510;2022-12-18T10:33:05;19.60;66.90
75126;DHT22;63699;45.442;11.510;2022-12-18T10:35:31;19.60;67.00
75126;DHT22;63699;45.442;11.510;2022-12-18T10:41:28;19.50;67.10
75126;DHT22;63699;45.442;11.510;2022-12-18T10:44:11;19.50;67.20
75126;DHT22;63699;45.442;11.510;2022-12-18T10:46:37;19.50;67.30
75126;DHT22;63699;45.442;11.510;2022-12-18T10:49:03;19.50;67.30
75126;DHT22;63699;45.442;11.510;2022-12-18T10:51:34;19.60;67.30
75126;DHT22;63699;45.442;11.510;2022-12-18T10:54:18;19.60;67.30
75126;DHT22;63699;45.442;11.510;2022-12-18T10:56:44;19.60;67.20
75126;DHT22;63699;45.442;11.510;2022-12-18T10:59:12;19.60;67.10
75126;DHT22;63699;45.442;11.510;2022-12-18T11:01:54;19.70;67.10
75126;DHT22;63699;45.442;11.510;2022-12-18T11:04:25;19.70;67.00
75126;DHT22;63699;45.442;11.510;2022-12-18T11:07:04;19.80;67.00
75126;DHT22;63699;45.442;11.510;2022-12-18T11:09:36;19.70;66.90
75126;DHT22;63699;45.442;11.510;2022-12-18T11:12:04;19.80;66.90
75126;DHT22;63699;45.442;11.510;2022-12-18T11:14:53;19.80;67.00
75126;DHT22;63699;45.442;11.510;2022-12-18T11:17:27;19.70;66.90
75126;DHT22;63699;45.442;11.510;2022-12-18T11:20:19;19.80;67.00
75126;DHT22;63699;45.442;11.510;2022-12-18T11:22:55;19.70;67.00
75126;DHT22;63699;45.442;11.510;2022-12-18T11:25:21;19.70;67.10
75126;DHT22;63699;45.442;11.510;2022-12-18T11:27:49;19.70;67.10
75126;DHT22;63699;45.442;11.510;2022-12-18T11:30:28;19.70;67.10
75126;DHT22;63699;45.442;11.510;2022-12-18T11:38:24;19.60;67.30
75126;DHT22;63699;45.442;11.510;2022-12-18T11:43:54;19.60;67.40
75126;DHT22;63699;45.442;11.510;2022-12-18T11:46:37;19.50;67.40
75126;DHT22;63699;45.442;11.510;2022-12-18T11:49:55;19.60;67.50
75126;DHT22;63699;45.442;11.510;2022-12-18T11:52:20;19.60;67.50
75126;DHT22;63699;45.442;11.510;2022-12-18T11:54:46;19.60;67.40
75126;DHT22;63699;45.442;11.510;2022-12-18T11:57:36;19.60;67.30
75126;DHT22;63699;45.442;11.510;2022-12-18T12:00:13;19.60;67.10
75126;DHT22;63699;45.442;11.510;2022-12-18T12:08:10;19.70;67.00
75126;DHT22;63699;45.442;11.510;2022-12-18T12:16:16;19.70;67.00
75126;DHT22;63699;45.442;11.510;2022-12-18T12:23:56;19.60;67.10
75126;DHT22;63699;45.442;11.510;2022-12-18T12:26:43;19.60;67.30
75126;DHT22;63699;45.442;11.510;2022-12-18T12:29:25;19.60;67.20
75126;DHT22;63699;45.442;11.510;2022-12-18T12:32:07;19.60;67.30
75126;DHT22;63699;45.442;11.510;2022-12-18T12:34:55;19.60;67.30
75126;DHT22;63699;45.442;11.510;2022-12-18T12:37:33;19.60;67.40
75126;DHT22;63699;45.442;11.510;2022-12-18T12:40:04;19.60;67.50
75126;DHT22;63699;45.442;11.510;2022-12-18T12:42:31;19.60;67.40
75126;DHT22;63699;45.442;11.510;2022-12-18T12:45:23;19.50;67.40
75126;DHT22;63699;45.442;11.510;2022-12-18T12:47:52;19.50;67.40
75126;DHT22;63699;45.442;11.510;2022-12-18T12:50:19;19.50;67.50
75126;DHT22;63699;45.442;11.510;2022-12-18T12:52:49;19.50;67.50
75126;DHT22;63699;45.442;11.510;2022-12-18T12:55:20;19.50;67.60
75126;DHT22;63699;45.442;11.510;2022-12-18T13:00:35;19.50;67.60
75126;DHT22;63699;45.442;11.510;2022-12-18T13:03:13;19.50;67.60
75126;DHT22;63699;45.442;11.510;2022-12-18T13:05:48;19.50;67.60
75126;DHT22;63699;45.442;11.510;2022-12-18T13:08:24;19.50;67.60
75126;DHT22;63699;45.442;11.510;2022-12-18T13:10:53;19.50;67.60
75126;DHT22;63699;45.442;11.510;2022-12-18T13:13:53;19.50;67.60
75126;DHT22;63699;45.442;11.510;2022-12-18T13:16:21;19.50;67.60
75126;DHT22;63699;45.442;11.510;2022-12-18T13:18:55;19.50;67.70
75126;DHT22;63699;45.442;11.510;2022-12-18T13:21:28;19.50;67.70
75126;DHT22;63699;45.442;11.510;2022-12-18T13:23:55;19.50;67.70
75126;DHT22;63699;45.442;11.510;2022-12-18T13:28:51;19.50;67.70
75126;DHT22;63699;45.442;11.510;2022-12-18T13:34:21;19.50;67.80
75126;DHT22;63699;45.442;11.510;2022-12-18T13:36:47;19.50;67.80
75126;DHT22;63699;45.442;11.510;2022-12-18T13:41:54;19.50;67.80
75126;DHT22;63699;45.442;11.510;2022-12-18T13:44:55;19.50;67.90
75126;DHT22;63699;45.442;11.510;2022-12-18T13:47:35;19.50;67.90
75126;DHT22;63699;45.442;11.510;2022-12-18T13:50:11;19.50;67.90
75126;DHT22;63699;45.442;11.510;2022-12-18T13:52:43;19.50;67.90
75126;DHT22;63699;45.442;11.510;2022-12-18T13:55:19;19.50;67.90
75126;DHT22;63699;45.442;11.510;2022-12-18T13:57:46;19.50;67.90
75126;DHT22;63699;45.442;11.510;2022-12-18T14:02:50;19.50;68.00
75126;DHT22;63699;45.442;11.510;2022-12-18T14:05:24;19.50;68.00
75126;DHT22;63699;45.442;11.510;2022-12-18T14:07:50;19.40;68.00
75126;DHT22;63699;45.442;11.510;2022-12-18T14:10:16;19.40;68.00
75126;DHT22;63699;45.442;11.510;2022-12-18T14:12:46;19.40;68.00
75126;DHT22;63699;45.442;11.510;2022-12-18T14:20:47;19.40;68.10
75126;DHT22;63699;45.442;11.510;2022-12-18T14:23:39;19.30;68.10
75126;DHT22;63699;45.442;11.510;2022-12-18T14:26:30;19.30;68.20
75126;DHT22;63699;45.442;11.510;2022-12-18T14:29:01;19.30;68.10
75126;DHT22;63699;45.442;11.510;2022-12-18T14:31:42;19.30;68.10
75126;DHT22;63699;45.442;11.510;2022-12-18T14:34:15;19.30;68.70
75126;DHT22;63699;45.442;11.510;2022-12-18T14:36:40;19.30;68.20
75126;DHT22;63699;45.442;11.510;2022-12-18T14:39:17;19.30;68.20
75126;DHT22;63699;45.442;11.510;2022-12-18T14:41:42;19.30;68.20
75126;DHT22;63699;45.442;11.510;2022-12-18T14:44:12;19.30;68.20
75126;DHT22;63699;45.442;11.510;2022-12-18T14:46:45;19.30;68.30
75126;DHT22;63699;45.442;11.510;2022-12-18T14:49:31;19.30;68.30
75126;DHT22;63699;45.442;11.510;2022-12-18T14:52:06;19.30;68.30
75126;DHT22;63699;45.442;11.510;2022-12-18T14:54:33;19.30;68.30
75126;DHT22;63699;45.442;11.510;2022-12-18T14:57:21;19.30;68.30
75126;DHT22;63699;45.442;11.510;2022-12-18T14:59:48;19.30;68.30
75126;DHT22;63699;45.442;11.510;2022-12-18T15:02:25;19.30;68.20
75126;DHT22;63699;45.442;11.510;2022-12-18T15:07:47;19.30;68.30
75126;DHT22;63699;45.442;11.510;2022-12-18T15:10:28;19.30;68.30
75126;DHT22;63699;45.442;11.510;2022-12-18T15:20:44;19.30;68.90
75126;DHT22;63699;45.442;11.510;2022-12-18T15:26:02;19.30;68.30
75126;DHT22;63699;45.442;11.510;2022-12-18T15:36:19;19.30;68.30
75126;DHT22;63699;45.442;11.510;2022-12-18T15:38:49;19.30;68.30
75126;DHT22;63699;45.442;11.510;2022-12-18T15:41:18;19.30;68.30
75126;DHT22;63699;45.442;11.510;2022-12-18T15:43:45;19.40;68.30
75126;DHT22;63699;45.442;11.510;2022-12-18T15:46:18;19.30;68.30
75126;DHT22;63699;45.442;11.510;2022-12-18T15:48:46;19.30;68.30
75126;DHT22;63699;45.442;11.510;2022-12-18T15:51:38;19.30;68.30
75126;DHT22;63699;45.442;11.510;2022-12-18T15:54:06;19.30;68.20
75126;DHT22;63699;45.442;11.510;2022-12-18T15:56:34;19.40;68.20
75126;DHT22;63699;45.442;11.510;2022-12-18T15:59:19;19.40;68.30
75126;DHT22;63699;45.442;11.510;2022-12-18T16:01:50;19.40;68.30
75126;DHT22;63699;45.442;11.510;2022-12-18T16:04:18;19.30;68.20
75126;DHT22;63699;45.442;11.510;2022-12-18T16:06:46;19.30;68.20
75126;DHT22;63699;45.442;11.510;2022-12-18T16:09:11;19.30;68.30
75126;DHT22;63699;45.442;11.510;2022-12-18T16:11:39;19.30;68.40
75126;DHT22;63699;45.442;11.510;2022-12-18T16:14:26;19.30;68.40
75126;DHT22;63699;45.442;11.510;2022-12-18T16:17:00;19.30;68.40
75126;DHT22;63699;45.442;11.510;2022-12-18T16:19:27;19.20;68.30
75126;DHT22;63699;45.442;11.510;2022-12-18T16:21:55;19.20;68.40
75126;DHT22;63699;45.442;11.510;2022-12-18T16:24:23;19.20;68.40
75126;DHT22;63699;45.442;11.510;2022-12-18T16:26:50;19.20;68.50
75126;DHT22;63699;45.442;11.510;2022-12-18T16:29:19;19.20;68.50
75126;DHT22;63699;45.442;11.510;2022-12-18T16:31:50;19.20;68.50
75126;DHT22;63699;45.442;11.510;2022-12-18T16:34:30;19.20;68.50
75126;DHT22;63699;45.442;11.510;2022-12-18T16:36:58;19.20;68.40
75126;DHT22;63699;45.442;11.510;2022-12-18T16:39:25;19.20;68.50
75126;DHT22;63699;45.442;11.510;2022-12-18T16:41:50;19.20;68.50
75126;DHT22;63699;45.442;11.510;2022-12-18T16:44:17;19.20;68.50
75126;DHT22;63699;45.442;11.510;2022-12-18T16:46:43;19.20;68.50
75126;DHT22;63699;45.442;11.510;2022-12-18T16:49:11;19.10;68.50
75126;DHT22;63699;45.442;11.510;2022-12-18T16:51:37;19.10;68.50
75126;DHT22;63699;45.442;11.510;2022-12-18T16:54:03;19.10;68.50
75126;DHT22;63699;45.442;11.510;2022-12-18T16:56:29;19.20;68.50
75126;DHT22;63699;45.442;11.510;2022-12-18T16:58:56;19.20;68.40
75126;DHT22;63699;45.442;11.510;2022-12-18T17:01:24;19.20;68.40
75126;DHT22;63699;45.442;11.510;2022-12-18T17:03:58;19.20;68.20
75126;DHT22;63699;45.442;11.510;2022-12-18T17:06:25;19.20;68.20
75126;DHT22;63699;45.442;11.510;2022-12-18T17:08:59;19.30;68.20
75126;DHT22;63699;45.442;11.510;2022-12-18T17:11:26;19.30;68.10